Time;durP1;ratioP1;P1;durP2;ratioP2;P2;SDS_P1;SDS_P2;PMS_P1;PMS_P2;Temp;Humidity;BMP_temperature;BMP_pressure;BME280_temperature;BME280_humidity;BME280_pressure;Samples;Min_cycle;Max_cycle;Signal;HPM_P1;HPM_P2
2023/01/01 00:01:22;;;;;;;17.90;12.05;;;;;;;;;;4977448;28;92317;-66
2023/01/01 00:03:49;;;;;;;17.90;11.85;;;;;;;;;;4982831;28;92552;-65
2023/01/01 00:06:16;;;;;;;18.95;10.77;;;;;;;;;;4982574;28;93133;-66
2023/01/01 00:08:42;;;;;;;17.27;10.73;;;;;;;;;;4985437;28;92240;-66
2023/01/01 00:11:09;;;;;;;16.77;10.65;;;;;;;;;;4983947;28;95737;-66
2023/01/01 00:13:36;;;;;;;16.85;10.35;;;;;;;;;;4985837;28;93542;-66
2023/01/01 00:16:13;;;;;;;19.55;11.95;;;;;;;;;;4982948;28;92590;-66
2023/01/01 00:18:39;;;;;;;18.40;11.57;;;;;;;;;;4981347;28;95805;-66
2023/01/01 00:21:08;;;;;;;19.77;10.93;;;;;;;;;;4982991;28;94061;-67
2023/01/01 00:23:34;;;;;;;17.88;11.00;;;;;;;;;;4982740;28;92590;-64
2023/01/01 00:26:07;;;;;;;19.77;11.50;;;;;;;;;;4982889;28;92748;-65
2023/01/01 00:28:34;;;;;;;18.63;11.63;;;;;;;;;;4983067;28;93291;-65
2023/01/01 00:31:05;;;;;;;20.23;11.65;;;;;;;;;;4985764;28;93089;-64
2023/01/01 00:33:31;;;;;;;16.58;10.38;;;;;;;;;;4982897;28;91990;-65
2023/01/01 00:36:04;;;;;;;19.52;11.10;;;;;;;;;;4982994;28;92592;-64
2023/01/01 00:38:31;;;;;;;18.20;11.38;;;;;;;;;;4981885;28;93202;-65
2023/01/01 00:40:58;;;;;;;19.48;11.15;;;;;;;;;;4982682;28;92146;-65
2023/01/01 00:43:24;;;;;;;18.95;11.52;;;;;;;;;;4981300;28;94804;-65
2023/01/01 00:45:53;;;;;;;16.50;10.30;;;;;;;;;;4982156;28;93126;-65
2023/01/01 00:48:20;;;;;;;17.85;11.45;;;;;;;;;;4982403;28;92374;-65
2023/01/01 00:50:47;;;;;;;18.35;11.75;;;;;;;;;;4982311;28;92474;-65
2023/01/01 00:53:13;;;;;;;19.75;10.73;;;;;;;;;;4985540;28;92676;-65
2023/01/01 00:55:40;;;;;;;18.30;11.20;;;;;;;;;;4982351;28;92589;-65
2023/01/01 00:58:06;;;;;;;18.35;12.07;;;;;;;;;;4981988;28;92683;-66
2023/01/01 01:00:33;;;;;;;18.45;10.90;;;;;;;;;;4982603;28;91290;-67
2023/01/01 01:03:00;;;;;;;19.67;11.43;;;;;;;;;;4981135;28;92371;-65
2023/01/01 01:05:26;;;;;;;15.95;10.18;;;;;;;;;;4982410;28;92623;-64
2023/01/01 01:07:53;;;;;;;16.38;9.73;;;;;;;;;;4980538;28;94677;-65
2023/01/01 01:10:24;;;;;;;17.05;10.18;;;;;;;;;;4983217;28;95304;-65
2023/01/01 01:12:51;;;;;;;17.73;10.85;;;;;;;;;;4985386;28;92112;-65
2023/01/01 01:15:18;;;;;;;16.40;10.65;;;;;;;;;;4984172;28;92494;-65
2023/01/01 01:17:44;;;;;;;16.60;10.65;;;;;;;;;;4981698;28;92657;-66
2023/01/01 01:20:11;;;;;;;15.30;9.80;;;;;;;;;;4982087;28;92174;-66
2023/01/01 01:22:38;;;;;;;16.13;10.02;;;;;;;;;;4981618;28;92530;-65
2023/01/01 01:25:05;;;;;;;16.45;9.00;;;;;;;;;;4982591;28;92045;-64
2023/01/01 01:27:32;;;;;;;16.15;10.25;;;;;;;;;;4982206;28;92543;-64
2023/01/01 01:29:58;;;;;;;15.27;10.07;;;;;;;;;;4982128;28;92935;-65
2023/01/01 01:32:24;;;;;;;15.95;9.68;;;;;;;;;;4979587;28;95176;-67
2023/01/01 01:34:51;;;;;;;17.65;9.13;;;;;;;;;;4982909;28;92031;-65
2023/01/01 01:37:17;;;;;;;15.93;8.63;;;;;;;;;;4985268;28;92465;-65
2023/01/01 01:39:44;;;;;;;15.30;8.82;;;;;;;;;;4983113;28;92439;-65
2023/01/01 01:42:17;;;;;;;13.52;7.97;;;;;;;;;;4982519;28;92741;-64
2023/01/01 01:44:47;;;;;;;14.63;8.70;;;;;;;;;;4982561;28;93140;-64
2023/01/01 01:47:15;;;;;;;14.60;8.63;;;;;;;;;;4982511;28;92425;-66
2023/01/01 01:49:43;;;;;;;15.07;8.23;;;;;;;;;;4969758;28;92449;-65
2023/01/01 01:52:09;;;;;;;13.93;7.70;;;;;;;;;;4982138;28;92455;-65
2023/01/01 01:54:35;;;;;;;14.90;9.18;;;;;;;;;;4983011;28;92424;-65
2023/01/01 01:57:04;;;;;;;13.98;8.15;;;;;;;;;;4983643;28;94778;-65
2023/01/01 01:59:32;;;;;;;14.77;8.35;;;;;;;;;;4982184;28;92567;-66
2023/01/01 02:01:59;;;;;;;13.43;7.72;;;;;;;;;;4981983;28;92514;-65
2023/01/01 02:04:26;;;;;;;14.75;7.70;;;;;;;;;;4981063;28;94822;-65
2023/01/01 02:06:53;;;;;;;13.82;7.82;;;;;;;;;;4981777;28;92162;-65
2023/01/01 02:09:19;;;;;;;16.08;7.90;;;;;;;;;;4982451;28;92453;-65
2023/01/01 02:11:46;;;;;;;13.55;8.18;;;;;;;;;;4985225;28;93577;-66
2023/01/01 02:14:12;;;;;;;14.85;8.05;;;;;;;;;;4982535;28;91359;-64
2023/01/01 02:16:55;;;;;;;12.30;7.97;;;;;;;;;;4982023;28;92283;-65
2023/01/01 02:19:32;;;;;;;12.48;7.03;;;;;;;;;;4985201;28;93338;-66
2023/01/01 02:22:17;;;;;;;13.48;7.40;;;;;;;;;;4980491;28;94592;-65
2023/01/01 02:24:47;;;;;;;12.57;7.40;;;;;;;;;;4982090;28;92722;-64
2023/01/01 02:27:16;;;;;;;11.38;6.55;;;;;;;;;;4997053;28;92479;-65
2023/01/01 02:29:49;;;;;;;12.80;6.97;;;;;;;;;;4981882;28;93421;-65
2023/01/01 02:32:18;;;;;;;14.73;7.38;;;;;;;;;;4981660;28;93231;-65
2023/01/01 02:34:57;;;;;;;13.90;7.20;;;;;;;;;;4982178;28;92313;-66
2023/01/01 02:37:24;;;;;;;11.88;7.10;;;;;;;;;;4981194;28;92692;-66
2023/01/01 02:39:53;;;;;;;12.07;6.25;;;;;;;;;;4982454;28;92193;-65
2023/01/01 02:42:22;;;;;;;12.55;6.50;;;;;;;;;;4984464;28;92374;-64
2023/01/01 02:44:49;;;;;;;14.23;7.25;;;;;;;;;;4981475;28;92838;-65
2023/01/01 02:47:17;;;;;;;11.93;6.85;;;;;;;;;;4979866;28;94671;-65
2023/01/01 02:49:47;;;;;;;12.88;6.25;;;;;;;;;;4980444;28;94886;-65
2023/01/01 02:52:20;;;;;;;11.63;6.05;;;;;;;;;;4981168;28;93150;-64
2023/01/01 02:54:54;;;;;;;13.18;6.32;;;;;;;;;;4981946;28;92340;-65
2023/01/01 02:57:23;;;;;;;11.55;6.43;;;;;;;;;;4981208;28;92111;-66
2023/01/01 03:02:55;;;;;;;11.63;6.50;;;;;;;;;;4983223;28;92303;-66
2023/01/01 03:05:22;;;;;;;11.85;6.07;;;;;;;;;;4988088;28;91868;-65
2023/01/01 03:08:03;;;;;;;12.20;6.30;;;;;;;;;;4984907;28;92275;-65
2023/01/01 03:10:56;;;;;;;10.30;5.60;;;;;;;;;;4983435;28;92517;-65
2023/01/01 03:13:43;;;;;;;10.80;5.53;;;;;;;;;;4966800;28;94949;-65
2023/01/01 03:16:15;;;;;;;9.80;5.10;;;;;;;;;;5000414;28;92358;-65
2023/01/01 03:18:41;;;;;;;9.50;5.25;;;;;;;;;;4984797;28;92778;-65
2023/01/01 03:21:09;;;;;;;10.52;5.45;;;;;;;;;;4984772;28;93443;-66
2023/01/01 03:23:41;;;;;;;11.43;5.38;;;;;;;;;;4984844;28;92468;-65
2023/01/01 03:26:15;;;;;;;10.60;5.70;;;;;;;;;;4984504;28;92723;-65
2023/01/01 03:28:47;;;;;;;10.80;5.40;;;;;;;;;;4987530;28;93092;-65
2023/01/01 03:31:14;;;;;;;11.25;5.22;;;;;;;;;;4985008;28;92514;-65
2023/01/01 03:33:43;;;;;;;10.52;5.68;;;;;;;;;;4983640;28;92798;-64
2023/01/01 03:36:10;;;;;;;10.52;5.18;;;;;;;;;;4982921;28;92176;-65
2023/01/01 03:38:36;;;;;;;10.20;5.40;;;;;;;;;;4982870;28;94395;-63
2023/01/01 03:41:06;;;;;;;9.55;4.70;;;;;;;;;;4984002;28;92710;-65
2023/01/01 03:43:43;;;;;;;9.15;4.97;;;;;;;;;;4984326;28;92216;-65
2023/01/01 03:46:11;;;;;;;9.98;4.50;;;;;;;;;;4984560;28;92488;-64
2023/01/01 03:48:56;;;;;;;9.00;4.47;;;;;;;;;;4984103;28;93060;-66
2023/01/01 03:51:36;;;;;;;9.57;5.00;;;;;;;;;;4986816;28;91977;-67
2023/01/01 03:54:07;;;;;;;9.90;4.47;;;;;;;;;;4982968;28;93126;-66
2023/01/01 03:56:42;;;;;;;10.10;4.90;;;;;;;;;;4984843;28;91525;-64
2023/01/01 03:59:12;;;;;;;10.05;4.20;;;;;;;;;;4983738;28;92112;-66
2023/01/01 04:01:42;;;;;;;8.30;4.22;;;;;;;;;;4983921;28;93026;-66
2023/01/01 04:04:10;;;;;;;9.85;4.70;;;;;;;;;;4982332;28;94440;-65
2023/01/01 04:06:36;;;;;;;;;;;;;;;;;;4988026;28;94767;-65
2023/01/01 04:09:03;;;;;;;8.63;4.28;;;;;;;;;;4984806;28;111806;-65
2023/01/01 04:14:29;;;;;;;9.57;4.88;;;;;;;;;;4990587;28;93136;-65
2023/01/01 04:16:55;;;;;;;;;;;;;;;;;;4984251;28;92131;-65
2023/01/01 04:19:21;;;;;;;10.57;4.72;;;;;;;;;;4984862;28;122771;-64
2023/01/01 04:21:48;;;;;;;10.18;4.85;;;;;;;;;;4983577;28;91385;-66
2023/01/01 04:24:14;;;;;;;9.25;4.13;;;;;;;;;;4982634;28;92000;-65
2023/01/01 04:26:41;;;;;;;8.77;3.90;;;;;;;;;;4983531;28;92362;-66
2023/01/01 04:29:07;;;;;;;7.75;3.70;;;;;;;;;;4981799;28;96039;-64
2023/01/01 04:31:34;;;;;;;8.30;3.70;;;;;;;;;;4983420;28;92414;-65
2023/01/01 04:34:00;;;;;;;8.20;3.83;;;;;;;;;;4986718;28;92413;-65
2023/01/01 04:36:26;;;;;;;8.90;3.97;;;;;;;;;;4983498;28;92323;-64
2023/01/01 04:38:53;;;;;;;8.13;3.90;;;;;;;;;;4983862;28;92423;-65
2023/01/01 04:41:19;;;;;;;8.50;3.55;;;;;;;;;;4983359;28;92824;-65
2023/01/01 04:43:49;;;;;;;9.68;4.28;;;;;;;;;;4983927;28;92317;-66
2023/01/01 04:46:16;;;;;;;7.68;3.63;;;;;;;;;;4983664;28;92796;-65
2023/01/01 04:48:42;;;;;;;9.75;3.90;;;;;;;;;;4983234;28;93258;-66
2023/01/01 04:51:10;;;;;;;7.70;3.70;;;;;;;;;;4983441;28;92619;-65
2023/01/01 04:53:36;;;;;;;9.10;4.07;;;;;;;;;;4978878;28;94637;-65
2023/01/01 04:56:10;;;;;;;7.75;3.28;;;;;;;;;;4986219;28;93195;-65
2023/01/01 04:58:37;;;;;;;8.85;3.53;;;;;;;;;;4983297;28;92992;-65
2023/01/01 05:01:04;;;;;;;8.27;3.38;;;;;;;;;;4982726;28;93083;-65
2023/01/01 05:03:31;;;;;;;7.90;3.45;;;;;;;;;;4982948;28;92451;-65
2023/01/01 05:06:02;;;;;;;8.05;3.42;;;;;;;;;;4983209;28;92432;-64
2023/01/01 05:08:29;;;;;;;7.55;3.78;;;;;;;;;;4983336;28;92797;-65
2023/01/01 05:11:03;;;;;;;7.80;3.10;;;;;;;;;;4983372;28;91449;-65
2023/01/01 05:13:33;;;;;;;9.02;3.80;;;;;;;;;;4982869;28;92228;-65
2023/01/01 05:16:04;;;;;;;8.15;3.47;;;;;;;;;;4982788;28;92633;-66
2023/01/01 05:18:31;;;;;;;8.27;3.25;;;;;;;;;;4984540;28;94460;-65
2023/01/01 05:21:01;;;;;;;6.80;3.35;;;;;;;;;;4982890;28;93260;-65
2023/01/01 05:23:27;;;;;;;9.93;3.60;;;;;;;;;;4982880;28;92238;-65
2023/01/01 05:25:54;;;;;;;7.30;2.72;;;;;;;;;;4981971;28;91999;-66
2023/01/01 05:28:20;;;;;;;8.43;3.35;;;;;;;;;;4982564;28;93283;-63
2023/01/01 05:30:47;;;;;;;7.47;3.60;;;;;;;;;;4982833;28;92063;-65
2023/01/01 05:33:13;;;;;;;6.40;3.10;;;;;;;;;;4982536;28;92802;-63
2023/01/01 05:35:39;;;;;;;8.15;3.63;;;;;;;;;;4983104;28;92111;-65
2023/01/01 05:38:06;;;;;;;8.35;3.22;;;;;;;;;;4982993;28;92255;-64
2023/01/01 05:40:32;;;;;;;8.02;2.97;;;;;;;;;;4985604;28;92388;-65
2023/01/01 05:42:59;;;;;;;7.75;3.13;;;;;;;;;;4981387;28;94512;-64
2023/01/01 05:45:25;;;;;;;8.93;3.65;;;;;;;;;;4981830;28;94851;-66
2023/01/01 05:47:51;;;;;;;6.57;2.60;;;;;;;;;;4982343;28;92701;-66
2023/01/01 05:50:18;;;;;;;9.40;3.15;;;;;;;;;;4982557;28;92535;-63
2023/01/01 05:52:44;;;;;;;6.78;2.92;;;;;;;;;;4987417;28;93121;-64
2023/01/01 05:55:10;;;;;;;7.07;3.22;;;;;;;;;;4982447;28;92930;-66
2023/01/01 05:57:37;;;;;;;7.00;3.40;;;;;;;;;;4982460;28;92314;-64
2023/01/01 06:00:04;;;;;;;7.40;2.97;;;;;;;;;;4985463;28;92127;-65
2023/01/01 06:02:31;;;;;;;8.15;3.20;;;;;;;;;;4982114;28;92500;-66
2023/01/01 06:04:58;;;;;;;6.70;3.00;;;;;;;;;;4982462;28;92392;-65
2023/01/01 06:07:24;;;;;;;8.10;3.67;;;;;;;;;;4980231;28;95091;-65
2023/01/01 06:09:51;;;;;;;8.93;3.65;;;;;;;;;;4982214;28;93110;-63
2023/01/01 06:12:17;;;;;;;5.88;2.47;;;;;;;;;;4991991;28;92332;-65
2023/01/01 06:14:44;;;;;;;7.25;2.85;;;;;;;;;;4984567;28;92772;-65
2023/01/01 06:17:10;;;;;;;7.50;2.90;;;;;;;;;;4997132;28;92190;-65
2023/01/01 06:19:36;;;;;;;6.72;3.00;;;;;;;;;;4982401;28;92787;-66
2023/01/01 06:22:04;;;;;;;8.05;2.75;;;;;;;;;;4984613;28;93143;-64
2023/01/01 06:24:31;;;;;;;6.63;3.00;;;;;;;;;;4982450;28;92628;-64
2023/01/01 06:27:05;;;;;;;;;;;;;;;;;;4982230;28;92779;-65
2023/01/01 06:29:32;;;;;;;6.25;2.50;;;;;;;;;;4983273;28;92465;-64
2023/01/01 06:31:58;;;;;;;7.43;2.63;;;;;;;;;;4978765;28;94738;-65
2023/01/01 06:34:25;;;;;;;6.18;2.72;;;;;;;;;;4981921;28;93196;-65
2023/01/01 06:36:51;;;;;;;5.78;2.70;;;;;;;;;;4982299;28;92629;-64
2023/01/01 06:39:17;;;;;;;6.60;2.85;;;;;;;;;;4985831;28;92493;-64
2023/01/01 06:41:44;;;;;;;6.80;2.50;;;;;;;;;;4985041;28;93267;-66
2023/01/01 06:44:10;;;;;;;6.07;2.38;;;;;;;;;;4988801;28;92395;-65
2023/01/01 06:46:37;;;;;;;5.57;2.50;;;;;;;;;;4985105;28;93560;-64
2023/01/01 06:49:10;;;;;;;5.05;2.10;;;;;;;;;;4972485;28;91902;-65
2023/01/01 06:51:37;;;;;;;6.07;2.30;;;;;;;;;;4985488;28;92016;-65
2023/01/01 06:54:04;;;;;;;7.38;2.83;;;;;;;;;;4985028;28;92594;-65
2023/01/01 06:56:31;;;;;;;5.28;2.22;;;;;;;;;;4983190;28;94533;-65
2023/01/01 06:58:57;;;;;;;7.13;2.53;;;;;;;;;;4984973;28;94879;-65
2023/01/01 07:01:25;;;;;;;5.75;2.33;;;;;;;;;;4984753;28;92859;-64
2023/01/01 07:03:55;;;;;;;5.68;2.10;;;;;;;;;;4985326;28;92377;-68
2023/01/01 07:06:21;;;;;;;5.28;2.30;;;;;;;;;;4987590;28;92589;-65
2023/01/01 07:08:48;;;;;;;6.07;2.40;;;;;;;;;;4985030;28;92087;-64
2023/01/01 07:11:15;;;;;;;6.78;2.38;;;;;;;;;;4985605;28;92386;-64
2023/01/01 07:13:42;;;;;;;;;;;;;;;;;;4996643;28;91802;-64
2023/01/01 07:16:08;;;;;;;6.22;2.45;;;;;;;;;;4985671;28;116664;-65
2023/01/01 07:18:38;;;;;;;5.45;2.30;;;;;;;;;;4983405;28;92387;-66
2023/01/01 07:21:06;;;;;;;7.20;2.53;;;;;;;;;;4982786;28;95320;-66
2023/01/01 07:23:33;;;;;;;5.22;2.20;;;;;;;;;;4970838;28;92020;-65
2023/01/01 07:26:00;;;;;;;6.63;2.25;;;;;;;;;;4984539;28;92325;-67
2023/01/01 07:28:26;;;;;;;6.07;2.20;;;;;;;;;;4987627;28;92756;-66
2023/01/01 07:30:53;;;;;;;5.25;2.22;;;;;;;;;;4984585;28;92463;-65
2023/01/01 07:33:21;;;;;;;5.43;2.10;;;;;;;;;;4983377;28;92447;-64
2023/01/01 07:35:48;;;;;;;5.03;2.20;;;;;;;;;;4984593;28;92162;-65
2023/01/01 07:38:14;;;;;;;5.72;2.20;;;;;;;;;;4985163;28;93044;-65
2023/01/01 07:40:41;;;;;;;4.72;1.90;;;;;;;;;;4984589;28;92778;-65
2023/01/01 07:43:08;;;;;;;5.68;2.15;;;;;;;;;;4984321;28;92582;-65
2023/01/01 07:45:34;;;;;;;6.15;2.30;;;;;;;;;;4982894;28;94888;-63
2023/01/01 07:48:01;;;;;;;4.60;1.90;;;;;;;;;;4983731;28;93084;-66
2023/01/01 07:50:28;;;;;;;4.88;1.92;;;;;;;;;;4987719;28;92354;-65
2023/01/01 07:52:55;;;;;;;6.18;2.10;;;;;;;;;;4983674;28;95182;-65
2023/01/01 07:55:21;;;;;;;5.90;2.15;;;;;;;;;;4984446;28;92311;-63
2023/01/01 07:57:48;;;;;;;5.53;2.13;;;;;;;;;;4984066;28;92499;-64
2023/01/01 08:00:17;;;;;;;6.30;2.08;;;;;;;;;;4983616;28;92203;-66
2023/01/01 08:02:43;;;;;;;4.70;2.13;;;;;;;;;;4984528;28;91669;-63
2023/01/01 08:05:10;;;;;;;5.25;1.90;;;;;;;;;;4984411;28;91968;-65
2023/01/01 08:07:37;;;;;;;6.18;2.20;;;;;;;;;;4983587;28;93219;-65
2023/01/01 08:10:04;;;;;;;5.35;1.98;;;;;;;;;;4985872;28;94715;-66
2023/01/01 08:12:31;;;;;;;;;;;;;;;;;;4995934;28;93093;-66
2023/01/01 08:14:57;;;;;;;5.47;1.98;;;;;;;;;;4985232;28;116286;-65
2023/01/01 08:17:23;;;;;;;4.72;1.92;;;;;;;;;;4983667;28;92567;-66
2023/01/01 08:19:51;;;;;;;4.40;1.70;;;;;;;;;;4983916;28;92816;-64
2023/01/01 08:22:18;;;;;;;5.15;1.70;;;;;;;;;;4972627;28;92786;-64
2023/01/01 08:24:44;;;;;;;6.35;1.85;;;;;;;;;;4984019;28;92783;-65
2023/01/01 08:27:14;;;;;;;2.90;1.70;;;;;;;;;;4983600;28;92025;-65
2023/01/01 08:29:41;;;;;;;4.70;1.77;;;;;;;;;;4983314;28;92452;-64
2023/01/01 08:32:08;;;;;;;6.05;1.80;;;;;;;;;;4985926;28;92536;-64
2023/01/01 08:34:34;;;;;;;5.15;1.88;;;;;;;;;;4980873;28;94915;-65
2023/01/01 08:37:01;;;;;;;5.28;1.70;;;;;;;;;;4982851;28;95151;-65
2023/01/01 08:39:28;;;;;;;4.18;1.63;;;;;;;;;;4983144;28;92284;-66
2023/01/01 08:41:54;;;;;;;4.93;1.65;;;;;;;;;;4982927;28;92560;-65
2023/01/01 08:44:20;;;;;;;5.22;1.63;;;;;;;;;;4983443;28;92483;-65
2023/01/01 08:46:47;;;;;;;5.95;1.80;;;;;;;;;;4982471;28;92760;-66
2023/01/01 08:49:13;;;;;;;4.50;1.70;;;;;;;;;;4982985;28;92323;-67
2023/01/01 08:51:40;;;;;;;4.22;1.67;;;;;;;;;;4983202;28;92734;-66
2023/01/01 08:54:06;;;;;;;4.20;1.60;;;;;;;;;;4985887;28;92642;-63
2023/01/01 08:56:36;;;;;;;4.97;2.03;;;;;;;;;;4997920;28;94496;-65
2023/01/01 08:59:03;;;;;;;6.03;1.70;;;;;;;;;;4980265;28;95097;-64
2023/01/01 09:01:30;;;;;;;4.88;1.75;;;;;;;;;;4982135;28;92305;-65
2023/01/01 09:03:56;;;;;;;4.50;1.60;;;;;;;;;;4982927;28;92806;-65
2023/01/01 09:06:23;;;;;;;5.20;1.63;;;;;;;;;;4982417;28;93137;-65
2023/01/01 09:08:50;;;;;;;3.60;1.60;;;;;;;;;;4982783;28;92534;-64
2023/01/01 09:11:24;;;;;;;5.38;1.70;;;;;;;;;;4983118;28;92368;-65
2023/01/01 09:13:50;;;;;;;2.83;1.42;;;;;;;;;;4992405;28;93088;-65
2023/01/01 09:16:18;;;;;;;4.88;1.60;;;;;;;;;;4985566;28;92178;-65
2023/01/01 09:18:44;;;;;;;;;;;;;;;;;;4982795;28;92375;-66
2023/01/01 09:21:11;;;;;;;4.50;1.60;;;;;;;;;;4983082;28;111085;-66
2023/01/01 09:23:37;;;;;;;4.97;1.52;;;;;;;;;;4980868;28;94379;-63
2023/01/01 09:26:04;;;;;;;3.97;1.45;;;;;;;;;;4982185;28;92823;-65
2023/01/01 09:28:31;;;;;;;4.45;1.85;;;;;;;;;;4981970;28;92115;-65
2023/01/01 09:30:58;;;;;;;5.25;1.80;;;;;;;;;;4982368;28;93317;-66
2023/01/01 09:33:24;;;;;;;5.35;1.77;;;;;;;;;;4982129;28;93666;-65
2023/01/01 09:35:50;;;;;;;4.25;1.70;;;;;;;;;;4982226;28;92399;-65
2023/01/01 09:38:17;;;;;;;5.57;1.83;;;;;;;;;;4983641;28;92408;-65
2023/01/01 09:41:01;;;;;;;5.68;1.65;;;;;;;;;;4982580;28;91326;-66
2023/01/01 09:43:30;;;;;;;4.75;1.50;;;;;;;;;;4997286;28;92238;-65
2023/01/01 09:46:01;;;;;;;3.17;1.40;;;;;;;;;;4976909;28;92967;-65
2023/01/01 09:48:28;;;;;;;4.90;1.52;;;;;;;;;;4980335;28;94423;-65
2023/01/01 09:50:55;;;;;;;3.97;1.58;;;;;;;;;;4993211;28;95325;-63
2023/01/01 09:53:27;;;;;;;5.05;1.70;;;;;;;;;;4975524;28;93152;-65
2023/01/01 09:55:56;;;;;;;4.60;1.73;;;;;;;;;;4981882;28;92390;-64
2023/01/01 09:58:25;;;;;;;5.47;1.77;;;;;;;;;;4981276;28;92066;-65
2023/01/01 10:00:53;;;;;;;7.32;1.90;;;;;;;;;;4984607;28;92812;-64
2023/01/01 10:03:46;;;;;;;5.75;1.67;;;;;;;;;;4981559;28;92351;-67
2023/01/01 10:06:17;;;;;;;4.55;1.60;;;;;;;;;;4982149;28;92151;-65
2023/01/01 10:08:53;;;;;;;4.53;1.60;;;;;;;;;;4981528;28;93642;-65
2023/01/01 10:11:28;;;;;;;4.35;1.48;;;;;;;;;;4983467;28;92801;-66
2023/01/01 10:13:56;;;;;;;3.83;1.48;;;;;;;;;;4985769;28;95379;-66
2023/01/01 10:16:29;;;;;;;4.07;1.63;;;;;;;;;;4981305;28;92090;-65
2023/01/01 10:18:57;;;;;;;3.85;1.52;;;;;;;;;;4981994;28;92398;-64
2023/01/01 10:21:30;;;;;;;4.10;1.20;;;;;;;;;;4984192;28;92754;-65
2023/01/01 10:23:59;;;;;;;3.30;1.60;;;;;;;;;;4982023;28;92886;-65
2023/01/01 10:26:28;;;;;;;3.83;1.50;;;;;;;;;;4979868;28;92800;-65
2023/01/01 10:28:56;;;;;;;3.90;1.40;;;;;;;;;;4981564;28;92386;-67
2023/01/01 10:31:33;;;;;;;6.05;1.60;;;;;;;;;;4981931;28;92714;-66
2023/01/01 10:34:26;;;;;;;5.10;1.42;;;;;;;;;;4981795;28;92711;-66
2023/01/01 10:36:54;;;;;;;4.35;1.38;;;;;;;;;;4979063;28;94711;-65
2023/01/01 10:39:21;;;;;;;4.35;1.48;;;;;;;;;;4980005;28;94863;-65
2023/01/01 10:41:47;;;;;;;4.13;1.33;;;;;;;;;;4980713;28;92776;-65
2023/01/01 10:44:15;;;;;;;3.92;1.45;;;;;;;;;;4984497;28;92058;-65
2023/01/01 10:46:41;;;;;;;;;;;;;;;;;;4981358;28;92754;-65
2023/01/01 10:49:10;;;;;;;4.82;1.40;;;;;;;;;;4982062;28;113293;-65
2023/01/01 10:51:55;;;;;;;3.92;1.48;;;;;;;;;;4980930;28;92232;-64
2023/01/01 10:54:31;;;;;;;3.85;1.25;;;;;;;;;;4969389;28;92812;-65
2023/01/01 10:56:58;;;;;;;6.30;1.48;;;;;;;;;;4981470;28;91295;-65
2023/01/01 10:59:33;;;;;;;2.80;1.23;;;;;;;;;;4980640;28;92451;-65
2023/01/01 11:02:14;;;;;;;5.63;1.55;;;;;;;;;;4980739;28;93647;-66
2023/01/01 11:04:41;;;;;;;3.63;1.40;;;;;;;;;;4971856;28;94826;-64
2023/01/01 11:07:08;;;;;;;3.38;1.52;;;;;;;;;;4983601;28;95281;-64
2023/01/01 11:09:38;;;;;;;4.00;1.70;;;;;;;;;;4980872;28;92510;-65
2023/01/01 11:12:06;;;;;;;2.97;1.30;;;;;;;;;;4988959;28;92724;-66
2023/01/01 11:14:52;;;;;;;3.85;1.30;;;;;;;;;;4983700;28;92713;-65
2023/01/01 11:17:26;;;;;;;3.42;1.30;;;;;;;;;;4981164;28;92881;-65
2023/01/01 11:19:53;;;;;;;4.15;1.25;;;;;;;;;;4996154;28;92828;-63
2023/01/01 11:22:38;;;;;;;5.28;1.35;;;;;;;;;;4981472;28;92282;-65
2023/01/01 11:25:16;;;;;;;3.72;1.42;;;;;;;;;;4985018;28;92386;-65
2023/01/01 11:27:43;;;;;;;4.32;1.60;;;;;;;;;;4976769;28;92431;-66
2023/01/01 11:30:18;;;;;;;5.22;1.60;;;;;;;;;;4985797;28;95137;-64
2023/01/01 11:32:45;;;;;;;4.30;1.40;;;;;;;;;;4984235;28;95260;-65
2023/01/01 11:35:22;;;;;;;4.07;1.70;;;;;;;;;;4984074;28;92273;-63
2023/01/01 11:37:50;;;;;;;4.03;1.40;;;;;;;;;;4983722;28;92326;-64
2023/01/01 11:40:16;;;;;;;;;;;;;;;;;;4984527;28;92797;-65
2023/01/01 11:42:53;;;;;;;2.63;1.10;;;;;;;;;;4984020;28;122084;-66
2023/01/01 11:45:25;;;;;;;3.80;1.20;;;;;;;;;;4984416;28;92397;-63
2023/01/01 11:47:54;;;;;;;6.07;1.67;;;;;;;;;;4984126;28;92904;-65
2023/01/01 11:50:38;;;;;;;3.90;1.30;;;;;;;;;;4983703;28;92789;-65
2023/01/01 11:53:18;;;;;;;4.68;1.33;;;;;;;;;;4986806;28;92376;-64
2023/01/01 11:55:47;;;;;;;5.97;1.52;;;;;;;;;;4982010;28;95125;-65
2023/01/01 11:58:26;;;;;;;4.78;1.50;;;;;;;;;;4983437;28;92011;-64
2023/01/01 12:01:01;;;;;;;3.88;1.52;;;;;;;;;;4983473;28;92954;-65
2023/01/01 12:03:39;;;;;;;3.85;1.55;;;;;;;;;;4983715;28;92716;-66
2023/01/01 12:06:05;;;;;;;3.67;1.30;;;;;;;;;;4983364;28;92641;-65
2023/01/01 12:08:36;;;;;;;4.68;1.30;;;;;;;;;;4983471;28;92369;-66
2023/01/01 12:11:06;;;;;;;3.63;1.30;;;;;;;;;;4986880;28;94716;-66
2023/01/01 12:13:37;;;;;;;4.55;1.70;;;;;;;;;;4971648;28;91273;-64
2023/01/01 12:16:12;;;;;;;4.22;1.30;;;;;;;;;;4986450;28;91968;-66
2023/01/01 12:18:54;;;;;;;4.70;1.52;;;;;;;;;;4983673;28;92247;-66
2023/01/01 12:21:28;;;;;;;5.72;1.40;;;;;;;;;;4981841;28;94543;-65
2023/01/01 12:23:54;;;;;;;;;;;;;;;;;;4982377;28;94439;-66
2023/01/01 12:26:20;;;;;;;5.05;1.67;;;;;;;;;;4983657;28;114675;-65
2023/01/01 12:29:02;;;;;;;4.10;1.50;;;;;;;;;;4983205;28;92668;-65
2023/01/01 12:31:28;;;;;;;5.70;1.27;;;;;;;;;;4998114;28;93130;-66
2023/01/01 12:34:04;;;;;;;3.92;1.30;;;;;;;;;;4982717;28;92293;-65
2023/01/01 12:36:44;;;;;;;4.25;1.55;;;;;;;;;;4985163;28;92452;-66
2023/01/01 12:39:29;;;;;;;5.88;1.70;;;;;;;;;;4998958;28;92115;-65
2023/01/01 12:42:01;;;;;;;5.00;1.48;;;;;;;;;;4982643;28;92534;-65
2023/01/01 12:44:28;;;;;;;5.55;1.27;;;;;;;;;;4981962;28;92936;-64
2023/01/01 12:46:54;;;;;;;3.15;1.30;;;;;;;;;;4981428;28;94888;-65
2023/01/01 12:49:39;;;;;;;4.68;1.45;;;;;;;;;;4982661;28;95049;-65
2023/01/01 12:52:26;;;;;;;5.28;1.50;;;;;;;;;;4982609;28;92712;-65
2023/01/01 12:54:59;;;;;;;3.55;1.60;;;;;;;;;;4983154;28;91974;-65
2023/01/01 12:57:38;;;;;;;4.50;1.48;;;;;;;;;;4982250;28;93242;-65
2023/01/01 13:00:11;;;;;;;3.67;1.40;;;;;;;;;;4985252;28;93085;-66
2023/01/01 13:02:42;;;;;;;5.07;1.45;;;;;;;;;;4982387;28;92436;-65
2023/01/01 13:05:29;;;;;;;4.70;1.50;;;;;;;;;;4983308;28;92536;-65
2023/01/01 13:07:59;;;;;;;4.28;1.42;;;;;;;;;;4962204;28;92453;-63
2023/01/01 13:10:27;;;;;;;4.45;1.30;;;;;;;;;;4982490;28;92709;-65
2023/01/01 13:12:55;;;;;;;4.72;1.40;;;;;;;;;;4990335;28;95532;-64
2023/01/01 13:15:47;;;;;;;3.75;1.33;;;;;;;;;;4982652;28;92038;-65
2023/01/01 13:18:14;;;;;;;3.33;1.40;;;;;;;;;;4980228;28;92862;-65
2023/01/01 13:20:54;;;;;;;4.78;1.48;;;;;;;;;;4982285;28;92844;-65
2023/01/01 13:23:33;;;;;;;5.10;1.73;;;;;;;;;;4985480;28;91981;-63
2023/01/01 13:26:24;;;;;;;5.38;1.52;;;;;;;;;;4982244;28;93477;-65
2023/01/01 13:28:50;;;;;;;4.05;1.42;;;;;;;;;;4970708;28;92870;-65
2023/01/01 13:31:17;;;;;;;5.30;1.55;;;;;;;;;;4982505;28;92525;-65
2023/01/01 13:33:43;;;;;;;5.20;1.38;;;;;;;;;;4982050;28;93077;-65
2023/01/01 13:36:19;;;;;;;4.75;1.35;;;;;;;;;;4982334;28;92233;-64
2023/01/01 13:38:50;;;;;;;5.03;1.50;;;;;;;;;;4980986;28;94349;-65
2023/01/01 13:41:35;;;;;;;4.60;1.40;;;;;;;;;;4981991;28;92669;-65
2023/01/01 13:44:02;;;;;;;4.07;1.45;;;;;;;;;;4982520;28;92389;-65
2023/01/01 13:46:42;;;;;;;5.00;1.52;;;;;;;;;;4982839;28;94388;-65
2023/01/01 13:49:18;;;;;;;5.70;1.50;;;;;;;;;;4982325;28;92466;-65
2023/01/01 13:52:05;;;;;;;5.82;1.70;;;;;;;;;;4982136;28;92444;-65
2023/01/01 13:54:34;;;;;;;5.07;1.70;;;;;;;;;;4981880;28;92786;-65
2023/01/01 13:57:03;;;;;;;5.30;1.30;;;;;;;;;;4980737;28;91471;-66
2023/01/01 13:59:37;;;;;;;5.70;1.60;;;;;;;;;;4996520;28;93549;-65
2023/01/01 14:02:10;;;;;;;4.30;1.33;;;;;;;;;;4981194;28;92520;-66
2023/01/01 14:04:40;;;;;;;6.25;1.50;;;;;;;;;;4980579;28;94714;-65
2023/01/01 14:07:15;;;;;;;5.90;1.60;;;;;;;;;;4981281;28;95095;-65
2023/01/01 14:10:20;;;;;;;3.45;1.30;;;;;;;;;;4984759;28;92633;-64
2023/01/01 14:12:47;;;;;;;4.47;1.23;;;;;;;;;;4982955;28;93072;-64
2023/01/01 14:15:33;;;;;;;4.20;1.40;;;;;;;;;;4981762;28;92742;-63
2023/01/01 14:18:01;;;;;;;5.05;1.50;;;;;;;;;;4981687;28;92478;-65
2023/01/01 14:20:27;;;;;;;;;;;;;;;;;;4982204;28;92722;-65
2023/01/01 14:22:54;;;;;;;5.03;1.40;;;;;;;;;;4981356;28;116536;-65
2023/01/01 14:25:28;;;;;;;6.03;1.50;;;;;;;;;;4980496;28;92068;-65
2023/01/01 14:27:56;;;;;;;3.83;1.30;;;;;;;;;;4975288;28;92390;-65
2023/01/01 14:30:23;;;;;;;6.22;1.60;;;;;;;;;;4979636;28;95967;-65
2023/01/01 14:32:56;;;;;;;6.22;1.50;;;;;;;;;;4984067;28;92063;-64
2023/01/01 14:35:22;;;;;;;2.70;1.30;;;;;;;;;;4981660;28;93454;-63
2023/01/01 14:37:49;;;;;;;4.97;1.45;;;;;;;;;;4981263;28;92344;-65
2023/01/01 14:40:33;;;;;;;5.25;1.45;;;;;;;;;;4981594;28;92529;-65
2023/01/01 14:43:02;;;;;;;5.47;1.38;;;;;;;;;;4996549;28;92669;-65
2023/01/01 14:45:28;;;;;;;3.83;1.52;;;;;;;;;;4981782;28;92521;-65
2023/01/01 14:47:55;;;;;;;5.70;1.50;;;;;;;;;;4982027;28;93021;-65
2023/01/01 14:50:29;;;;;;;4.15;1.30;;;;;;;;;;4981046;28;92282;-65
2023/01/01 14:53:00;;;;;;;5.47;1.65;;;;;;;;;;4974555;28;92089;-66
2023/01/01 14:55:29;;;;;;;4.40;1.38;;;;;;;;;;4978039;28;97349;-64
2023/01/01 14:57:59;;;;;;;4.85;1.75;;;;;;;;;;4981815;28;92095;-65
2023/01/01 15:00:27;;;;;;;4.07;1.30;;;;;;;;;;4984201;28;93641;-65
2023/01/01 15:02:53;;;;;;;5.00;1.40;;;;;;;;;;4984460;28;92910;-64